sensor_id;sensor_type;location;lat;lon;timestamp;P1;durP1;ratioP1;P2;durP2;ratioP2
46835;SDS011;32573;51.290;6.926;2023-03-31T00:01:08;2.45;;;1.02;;
46835;SDS011;32573;51.290;6.926;2023-03-31T00:03:37;2.78;;;1.10;;
46835;SDS011;32573;51.290;6.926;2023-03-31T00:06:10;4.15;;;1.10;;
46835;SDS011;32573;51.290;6.926;2023-03-31T00:08:45;2.55;;;1.10;;
46835;SDS011;32573;51.290;6.926;2023-03-31T00:11:19;2.97;;;1.00;;
46835;SDS011;32573;51.290;6.926;2023-03-31T00:13:48;2.30;;;1.05;;
46835;SDS011;32573;51.290;6.926;2023-03-31T00:16:17;3.55;;;1.20;;
46835;SDS011;32573;51.290;6.926;2023-03-31T00:18:46;3.72;;;1.10;;
46835;SDS011;32573;51.290;6.926;2023-03-31T00:21:17;3.40;;;1.20;;
46835;SDS011;32573;51.290;6.926;2023-03-31T00:23:56;4.35;;;1.20;;
46835;SDS011;32573;51.290;6.926;2023-03-31T00:26:27;2.40;;;1.00;;
46835;SDS011;32573;51.290;6.926;2023-03-31T00:28:57;4.55;;;1.20;;
46835;SDS011;32573;51.290;6.926;2023-03-31T00:31:27;3.92;;;1.00;;
46835;SDS011;32573;51.290;6.926;2023-03-31T00:33:55;3.67;;;1.00;;
46835;SDS011;32573;51.290;6.926;2023-03-31T00:36:24;2.97;;;0.98;;
46835;SDS011;32573;51.290;6.926;2023-03-31T00:38:54;4.68;;;1.33;;
46835;SDS011;32573;51.290;6.926;2023-03-31T00:41:28;4.07;;;1.13;;
46835;SDS011;32573;51.290;6.926;2023-03-31T00:44:00;3.58;;;1.20;;
46835;SDS011;32573;51.290;6.926;2023-03-31T00:46:35;2.15;;;1.00;;
46835;SDS011;32573;51.290;6.926;2023-03-31T00:49:10;3.08;;;1.13;;
46835;SDS011;32573;51.290;6.926;2023-03-31T00:51:42;3.65;;;1.30;;
46835;SDS011;32573;51.290;6.926;2023-03-31T00:54:12;4.05;;;1.20;;
46835;SDS011;32573;51.290;6.926;2023-03-31T00:56:43;2.80;;;1.10;;
46835;SDS011;32573;51.290;6.926;2023-03-31T00:59:15;3.33;;;1.15;;
46835;SDS011;32573;51.290;6.926;2023-03-31T01:01:44;3.70;;;1.25;;
46835;SDS011;32573;51.290;6.926;2023-03-31T01:04:18;2.83;;;1.25;;
46835;SDS011;32573;51.290;6.926;2023-03-31T01:06:51;3.42;;;1.23;;
46835;SDS011;32573;51.290;6.926;2023-03-31T01:09:28;4.72;;;1.33;;
46835;SDS011;32573;51.290;6.926;2023-03-31T01:12:03;3.80;;;1.10;;
46835;SDS011;32573;51.290;6.926;2023-03-31T01:14:34;4.80;;;1.13;;
46835;SDS011;32573;51.290;6.926;2023-03-31T01:17:03;2.58;;;1.00;;
46835;SDS011;32573;51.290;6.926;2023-03-31T01:19:40;2.47;;;1.00;;
46835;SDS011;32573;51.290;6.926;2023-03-31T01:22:43;2.80;;;1.30;;
46835;SDS011;32573;51.290;6.926;2023-03-31T01:28:38;4.68;;;1.10;;
46835;SDS011;32573;51.290;6.926;2023-03-31T01:37:35;2.33;;;1.00;;
46835;SDS011;32573;51.290;6.926;2023-03-31T01:40:37;3.63;;;1.08;;
46835;SDS011;32573;51.290;6.926;2023-03-31T01:43:16;2.63;;;1.17;;
46835;SDS011;32573;51.290;6.926;2023-03-31T01:45:52;5.40;;;1.40;;
46835;SDS011;32573;51.290;6.926;2023-03-31T01:48:30;2.85;;;1.10;;
46835;SDS011;32573;51.290;6.926;2023-03-31T01:51:09;3.22;;;1.23;;
46835;SDS011;32573;51.290;6.926;2023-03-31T01:53:44;2.45;;;1.00;;
46835;SDS011;32573;51.290;6.926;2023-03-31T01:56:20;3.00;;;1.10;;
46835;SDS011;32573;51.290;6.926;2023-03-31T01:58:52;4.25;;;1.30;;
46835;SDS011;32573;51.290;6.926;2023-03-31T02:01:24;3.22;;;1.20;;
46835;SDS011;32573;51.290;6.926;2023-03-31T02:03:59;3.20;;;1.00;;
46835;SDS011;32573;51.290;6.926;2023-03-31T02:06:34;4.32;;;1.35;;
46835;SDS011;32573;51.290;6.926;2023-03-31T02:09:08;4.93;;;1.10;;
46835;SDS011;32573;51.290;6.926;2023-03-31T02:11:40;4.53;;;1.20;;
46835;SDS011;32573;51.290;6.926;2023-03-31T02:14:11;5.40;;;1.27;;
46835;SDS011;32573;51.290;6.926;2023-03-31T02:16:45;5.18;;;1.50;;
46835;SDS011;32573;51.290;6.926;2023-03-31T02:19:17;5.30;;;1.20;;
46835;SDS011;32573;51.290;6.926;2023-03-31T02:21:49;4.82;;;1.25;;
46835;SDS011;32573;51.290;6.926;2023-03-31T02:24:18;5.13;;;1.50;;
46835;SDS011;32573;51.290;6.926;2023-03-31T02:26:52;3.53;;;1.23;;
46835;SDS011;32573;51.290;6.926;2023-03-31T02:29:25;7.72;;;1.55;;
46835;SDS011;32573;51.290;6.926;2023-03-31T02:31:55;4.32;;;1.45;;
46835;SDS011;32573;51.290;6.926;2023-03-31T02:34:28;6.47;;;1.48;;
46835;SDS011;32573;51.290;6.926;2023-03-31T02:36:57;5.45;;;1.33;;
46835;SDS011;32573;51.290;6.926;2023-03-31T02:39:27;5.80;;;1.55;;
46835;SDS011;32573;51.290;6.926;2023-03-31T02:42:01;5.07;;;1.70;;
46835;SDS011;32573;51.290;6.926;2023-03-31T02:44:33;4.78;;;1.30;;
46835;SDS011;32573;51.290;6.926;2023-03-31T02:47:03;4.53;;;1.30;;
46835;SDS011;32573;51.290;6.926;2023-03-31T02:49:34;3.50;;;1.40;;
46835;SDS011;32573;51.290;6.926;2023-03-31T02:55:31;3.10;;;1.20;;
46835;SDS011;32573;51.290;6.926;2023-03-31T03:01:05;3.35;;;1.10;;
46835;SDS011;32573;51.290;6.926;2023-03-31T03:03:44;4.25;;;1.30;;
46835;SDS011;32573;51.290;6.926;2023-03-31T03:06:27;3.63;;;1.20;;
46835;SDS011;32573;51.290;6.926;2023-03-31T03:09:19;4.25;;;1.30;;
46835;SDS011;32573;51.290;6.926;2023-03-31T03:12:02;6.05;;;1.60;;
46835;SDS011;32573;51.290;6.926;2023-03-31T03:14:38;2.95;;;1.10;;
46835;SDS011;32573;51.290;6.926;2023-03-31T03:17:15;4.53;;;1.38;;
46835;SDS011;32573;51.290;6.926;2023-03-31T03:19:49;4.65;;;1.50;;
46835;SDS011;32573;51.290;6.926;2023-03-31T03:22:20;4.38;;;1.30;;
46835;SDS011;32573;51.290;6.926;2023-03-31T03:24:49;3.42;;;1.40;;
46835;SDS011;32573;51.290;6.926;2023-03-31T03:27:18;4.13;;;1.23;;
46835;SDS011;32573;51.290;6.926;2023-03-31T03:29:49;3.08;;;1.17;;
46835;SDS011;32573;51.290;6.926;2023-03-31T03:32:18;2.80;;;1.10;;
46835;SDS011;32573;51.290;6.926;2023-03-31T03:34:47;4.00;;;1.30;;
46835;SDS011;32573;51.290;6.926;2023-03-31T03:37:15;6.78;;;1.40;;
46835;SDS011;32573;51.290;6.926;2023-03-31T03:39:44;4.95;;;1.30;;
46835;SDS011;32573;51.290;6.926;2023-03-31T03:42:12;2.97;;;1.20;;
46835;SDS011;32573;51.290;6.926;2023-03-31T03:44:41;3.22;;;1.33;;
46835;SDS011;32573;51.290;6.926;2023-03-31T03:47:11;4.43;;;1.60;;
46835;SDS011;32573;51.290;6.926;2023-03-31T03:49:40;3.40;;;1.40;;
46835;SDS011;32573;51.290;6.926;2023-03-31T03:52:08;4.82;;;1.40;;
46835;SDS011;32573;51.290;6.926;2023-03-31T03:54:37;3.75;;;1.33;;
46835;SDS011;32573;51.290;6.926;2023-03-31T03:57:05;4.75;;;1.38;;
46835;SDS011;32573;51.290;6.926;2023-03-31T03:59:34;5.68;;;1.50;;
46835;SDS011;32573;51.290;6.926;2023-03-31T04:02:02;4.43;;;1.70;;
46835;SDS011;32573;51.290;6.926;2023-03-31T04:04:32;3.33;;;1.33;;
46835;SDS011;32573;51.290;6.926;2023-03-31T04:07:01;3.63;;;1.33;;
46835;SDS011;32573;51.290;6.926;2023-03-31T04:09:29;5.05;;;1.30;;
46835;SDS011;32573;51.290;6.926;2023-03-31T04:11:58;4.38;;;1.63;;
46835;SDS011;32573;51.290;6.926;2023-03-31T04:14:26;4.53;;;1.67;;
46835;SDS011;32573;51.290;6.926;2023-03-31T04:16:55;5.68;;;1.70;;
46835;SDS011;32573;51.290;6.926;2023-03-31T04:19:24;8.25;;;2.05;;
46835;SDS011;32573;51.290;6.926;2023-03-31T04:21:54;5.43;;;1.70;;
46835;SDS011;32573;51.290;6.926;2023-03-31T04:24:28;8.23;;;2.10;;
46835;SDS011;32573;51.290;6.926;2023-03-31T04:26:59;3.80;;;1.55;;
46835;SDS011;32573;51.290;6.926;2023-03-31T04:29:29;5.57;;;1.70;;
46835;SDS011;32573;51.290;6.926;2023-03-31T04:31:59;6.35;;;1.60;;
46835;SDS011;32573;51.290;6.926;2023-03-31T04:34:28;5.28;;;1.77;;
46835;SDS011;32573;51.290;6.926;2023-03-31T04:37:03;5.18;;;1.50;;
46835;SDS011;32573;51.290;6.926;2023-03-31T04:39:31;4.20;;;1.60;;
46835;SDS011;32573;51.290;6.926;2023-03-31T04:42:00;4.75;;;1.67;;
46835;SDS011;32573;51.290;6.926;2023-03-31T04:44:29;4.47;;;1.63;;
46835;SDS011;32573;51.290;6.926;2023-03-31T04:46:57;4.72;;;1.40;;
46835;SDS011;32573;51.290;6.926;2023-03-31T04:49:29;4.15;;;1.52;;
46835;SDS011;32573;51.290;6.926;2023-03-31T04:51:59;5.07;;;1.60;;
46835;SDS011;32573;51.290;6.926;2023-03-31T04:54:29;5.05;;;1.58;;
46835;SDS011;32573;51.290;6.926;2023-03-31T04:56:57;4.38;;;1.50;;
46835;SDS011;32573;51.290;6.926;2023-03-31T04:59:26;4.78;;;1.52;;
46835;SDS011;32573;51.290;6.926;2023-03-31T05:01:54;5.20;;;1.58;;
46835;SDS011;32573;51.290;6.926;2023-03-31T05:04:23;4.78;;;1.40;;
46835;SDS011;32573;51.290;6.926;2023-03-31T05:06:52;4.35;;;1.30;;
46835;SDS011;32573;51.290;6.926;2023-03-31T05:09:21;4.95;;;1.70;;
46835;SDS011;32573;51.290;6.926;2023-03-31T05:11:51;4.93;;;1.55;;
46835;SDS011;32573;51.290;6.926;2023-03-31T05:14:19;4.97;;;1.50;;
46835;SDS011;32573;51.290;6.926;2023-03-31T05:16:48;3.78;;;1.20;;
46835;SDS011;32573;51.290;6.926;2023-03-31T05:19:16;3.58;;;1.30;;
46835;SDS011;32573;51.290;6.926;2023-03-31T05:21:45;4.00;;;1.30;;
46835;SDS011;32573;51.290;6.926;2023-03-31T05:24:13;4.60;;;1.25;;
46835;SDS011;32573;51.290;6.926;2023-03-31T05:26:42;4.38;;;1.30;;
46835;SDS011;32573;51.290;6.926;2023-03-31T05:29:15;3.58;;;1.20;;
46835;SDS011;32573;51.290;6.926;2023-03-31T05:31:44;4.70;;;1.55;;
46835;SDS011;32573;51.290;6.926;2023-03-31T05:34:13;3.92;;;1.27;;
46835;SDS011;32573;51.290;6.926;2023-03-31T05:36:42;2.85;;;0.98;;
46835;SDS011;32573;51.290;6.926;2023-03-31T05:39:10;5.97;;;1.30;;
46835;SDS011;32573;51.290;6.926;2023-03-31T05:41:39;3.85;;;1.20;;
46835;SDS011;32573;51.290;6.926;2023-03-31T05:44:07;3.35;;;1.30;;
46835;SDS011;32573;51.290;6.926;2023-03-31T05:46:37;3.05;;;1.20;;
46835;SDS011;32573;51.290;6.926;2023-03-31T05:49:07;6.82;;;1.35;;
46835;SDS011;32573;51.290;6.926;2023-03-31T05:51:37;3.20;;;1.20;;
46835;SDS011;32573;51.290;6.926;2023-03-31T05:54:05;3.25;;;1.17;;
46835;SDS011;32573;51.290;6.926;2023-03-31T05:56:34;3.45;;;1.20;;
46835;SDS011;32573;51.290;6.926;2023-03-31T05:59:02;3.28;;;1.20;;
46835;SDS011;32573;51.290;6.926;2023-03-31T06:01:31;3.38;;;1.17;;
46835;SDS011;32573;51.290;6.926;2023-03-31T06:04:01;5.70;;;1.40;;
46835;SDS011;32573;51.290;6.926;2023-03-31T06:06:30;3.83;;;1.30;;
46835;SDS011;32573;51.290;6.926;2023-03-31T06:09:01;3.45;;;1.30;;
46835;SDS011;32573;51.290;6.926;2023-03-31T06:11:30;3.95;;;1.20;;
46835;SDS011;32573;51.290;6.926;2023-03-31T06:13:59;3.30;;;1.10;;
46835;SDS011;32573;51.290;6.926;2023-03-31T06:16:27;4.50;;;1.33;;
46835;SDS011;32573;51.290;6.926;2023-03-31T06:18:56;4.00;;;1.20;;
46835;SDS011;32573;51.290;6.926;2023-03-31T06:21:25;3.78;;;1.25;;
46835;SDS011;32573;51.290;6.926;2023-03-31T06:23:54;3.22;;;1.20;;
46835;SDS011;32573;51.290;6.926;2023-03-31T06:26:24;3.10;;;1.10;;
46835;SDS011;32573;51.290;6.926;2023-03-31T06:28:53;2.83;;;1.15;;
46835;SDS011;32573;51.290;6.926;2023-03-31T06:31:22;3.25;;;1.10;;
46835;SDS011;32573;51.290;6.926;2023-03-31T06:33:52;5.07;;;1.27;;
46835;SDS011;32573;51.290;6.926;2023-03-31T06:36:20;4.40;;;1.33;;
46835;SDS011;32573;51.290;6.926;2023-03-31T06:38:51;2.85;;;1.00;;
46835;SDS011;32573;51.290;6.926;2023-03-31T06:41:19;3.63;;;1.02;;
46835;SDS011;32573;51.290;6.926;2023-03-31T06:43:48;3.10;;;1.15;;
46835;SDS011;32573;51.290;6.926;2023-03-31T06:46:17;2.95;;;1.20;;
46835;SDS011;32573;51.290;6.926;2023-03-31T06:48:45;4.40;;;1.27;;
46835;SDS011;32573;51.290;6.926;2023-03-31T06:51:14;3.33;;;1.30;;
46835;SDS011;32573;51.290;6.926;2023-03-31T06:53:43;5.70;;;1.40;;
46835;SDS011;32573;51.290;6.926;2023-03-31T06:56:13;3.80;;;1.30;;
46835;SDS011;32573;51.290;6.926;2023-03-31T06:58:41;4.15;;;1.40;;
46835;SDS011;32573;51.290;6.926;2023-03-31T07:01:10;3.20;;;1.20;;
46835;SDS011;32573;51.290;6.926;2023-03-31T07:03:38;3.22;;;1.30;;
46835;SDS011;32573;51.290;6.926;2023-03-31T07:06:07;3.72;;;1.30;;
46835;SDS011;32573;51.290;6.926;2023-03-31T07:08:35;3.58;;;1.40;;
46835;SDS011;32573;51.290;6.926;2023-03-31T07:11:04;4.60;;;1.40;;
46835;SDS011;32573;51.290;6.926;2023-03-31T07:13:34;3.78;;;1.52;;
46835;SDS011;32573;51.290;6.926;2023-03-31T07:16:03;3.03;;;1.40;;
46835;SDS011;32573;51.290;6.926;2023-03-31T07:18:33;3.53;;;1.27;;
46835;SDS011;32573;51.290;6.926;2023-03-31T07:21:02;4.57;;;1.58;;
46835;SDS011;32573;51.290;6.926;2023-03-31T07:23:36;3.20;;;1.30;;
46835;SDS011;32573;51.290;6.926;2023-03-31T07:26:04;2.72;;;1.10;;
46835;SDS011;32573;51.290;6.926;2023-03-31T07:28:35;3.30;;;1.30;;
46835;SDS011;32573;51.290;6.926;2023-03-31T07:31:09;4.60;;;1.40;;
46835;SDS011;32573;51.290;6.926;2023-03-31T07:36:07;3.35;;;1.10;;
46835;SDS011;32573;51.290;6.926;2023-03-31T07:38:40;2.95;;;1.20;;
46835;SDS011;32573;51.290;6.926;2023-03-31T07:41:09;3.50;;;1.10;;
46835;SDS011;32573;51.290;6.926;2023-03-31T07:43:40;2.58;;;1.10;;
46835;SDS011;32573;51.290;6.926;2023-03-31T07:46:16;2.58;;;1.10;;
46835;SDS011;32573;51.290;6.926;2023-03-31T07:48:46;2.85;;;1.00;;
46835;SDS011;32573;51.290;6.926;2023-03-31T07:51:16;2.03;;;0.90;;
46835;SDS011;32573;51.290;6.926;2023-03-31T07:53:47;3.55;;;1.20;;
46835;SDS011;32573;51.290;6.926;2023-03-31T07:56:18;1.92;;;1.00;;
46835;SDS011;32573;51.290;6.926;2023-03-31T07:58:51;2.42;;;1.00;;
46835;SDS011;32573;51.290;6.926;2023-03-31T08:01:23;4.05;;;1.15;;
46835;SDS011;32573;51.290;6.926;2023-03-31T08:03:55;2.60;;;0.98;;
46835;SDS011;32573;51.290;6.926;2023-03-31T08:06:25;2.72;;;1.00;;
46835;SDS011;32573;51.290;6.926;2023-03-31T08:08:55;2.85;;;1.00;;
46835;SDS011;32573;51.290;6.926;2023-03-31T08:11:24;3.25;;;1.20;;
46835;SDS011;32573;51.290;6.926;2023-03-31T08:13:54;2.92;;;1.10;;
46835;SDS011;32573;51.290;6.926;2023-03-31T08:16:23;3.53;;;1.20;;
46835;SDS011;32573;51.290;6.926;2023-03-31T08:18:52;3.25;;;1.10;;
46835;SDS011;32573;51.290;6.926;2023-03-31T08:21:20;2.75;;;1.10;;
46835;SDS011;32573;51.290;6.926;2023-03-31T08:23:52;2.28;;;1.00;;
46835;SDS011;32573;51.290;6.926;2023-03-31T08:26:21;3.13;;;1.00;;
46835;SDS011;32573;51.290;6.926;2023-03-31T08:28:50;2.95;;;1.10;;
46835;SDS011;32573;51.290;6.926;2023-03-31T08:31:21;2.90;;;1.00;;
46835;SDS011;32573;51.290;6.926;2023-03-31T08:33:53;4.18;;;1.27;;
46835;SDS011;32573;51.290;6.926;2023-03-31T08:36:23;2.80;;;1.20;;
46835;SDS011;32573;51.290;6.926;2023-03-31T08:38:52;3.42;;;1.00;;
46835;SDS011;32573;51.290;6.926;2023-03-31T08:41:26;3.15;;;1.13;;
46835;SDS011;32573;51.290;6.926;2023-03-31T08:44:06;3.40;;;1.20;;
46835;SDS011;32573;51.290;6.926;2023-03-31T08:46:40;3.58;;;1.20;;
46835;SDS011;32573;51.290;6.926;2023-03-31T08:49:11;3.10;;;1.20;;
46835;SDS011;32573;51.290;6.926;2023-03-31T08:51:45;2.95;;;1.13;;
46835;SDS011;32573;51.290;6.926;2023-03-31T08:54:16;3.00;;;1.15;;
46835;SDS011;32573;51.290;6.926;2023-03-31T08:56:50;3.85;;;1.08;;
46835;SDS011;32573;51.290;6.926;2023-03-31T08:59:21;3.53;;;1.00;;
46835;SDS011;32573;51.290;6.926;2023-03-31T09:01:57;2.58;;;1.10;;
46835;SDS011;32573;51.290;6.926;2023-03-31T09:04:54;2.58;;;1.10;;
46835;SDS011;32573;51.290;6.926;2023-03-31T09:10:16;3.40;;;1.10;;
46835;SDS011;32573;51.290;6.926;2023-03-31T09:12:52;6.03;;;1.40;;
46835;SDS011;32573;51.290;6.926;2023-03-31T09:15:28;4.78;;;1.40;;
46835;SDS011;32573;51.290;6.926;2023-03-31T09:18:06;6.22;;;1.20;;
46835;SDS011;32573;51.290;6.926;2023-03-31T09:20:42;3.65;;;1.30;;
46835;SDS011;32573;51.290;6.926;2023-03-31T09:23:18;4.43;;;1.25;;
46835;SDS011;32573;51.290;6.926;2023-03-31T09:25:53;3.28;;;1.20;;
46835;SDS011;32573;51.290;6.926;2023-03-31T09:28:25;4.50;;;1.20;;
46835;SDS011;32573;51.290;6.926;2023-03-31T09:30:57;3.95;;;1.27;;
46835;SDS011;32573;51.290;6.926;2023-03-31T09:33:28;3.63;;;1.27;;
46835;SDS011;32573;51.290;6.926;2023-03-31T09:35:58;5.10;;;1.45;;
46835;SDS011;32573;51.290;6.926;2023-03-31T09:38:28;5.10;;;1.20;;
46835;SDS011;32573;51.290;6.926;2023-03-31T09:40:57;4.97;;;1.30;;
46835;SDS011;32573;51.290;6.926;2023-03-31T09:43:27;2.63;;;1.05;;
46835;SDS011;32573;51.290;6.926;2023-03-31T09:45:58;8.15;;;1.73;;
46835;SDS011;32573;51.290;6.926;2023-03-31T09:48:42;4.18;;;1.40;;
46835;SDS011;32573;51.290;6.926;2023-03-31T09:51:21;5.53;;;1.60;;
46835;SDS011;32573;51.290;6.926;2023-03-31T09:53:57;5.30;;;1.77;;
46835;SDS011;32573;51.290;6.926;2023-03-31T09:56:43;5.07;;;1.50;;
46835;SDS011;32573;51.290;6.926;2023-03-31T09:59:15;4.88;;;1.30;;
46835;SDS011;32573;51.290;6.926;2023-03-31T10:01:45;5.93;;;1.40;;
46835;SDS011;32573;51.290;6.926;2023-03-31T10:04:20;6.10;;;1.70;;
46835;SDS011;32573;51.290;6.926;2023-03-31T10:06:50;8.52;;;1.90;;
46835;SDS011;32573;51.290;6.926;2023-03-31T10:09:23;6.00;;;2.20;;
46835;SDS011;32573;51.290;6.926;2023-03-31T10:11:54;10.52;;;2.20;;
46835;SDS011;32573;51.290;6.926;2023-03-31T10:14:25;5.05;;;1.40;;
46835;SDS011;32573;51.290;6.926;2023-03-31T10:17:01;8.45;;;1.80;;
46835;SDS011;32573;51.290;6.926;2023-03-31T10:19:34;5.50;;;1.77;;
46835;SDS011;32573;51.290;6.926;2023-03-31T10:22:05;5.65;;;1.60;;
46835;SDS011;32573;51.290;6.926;2023-03-31T10:24:42;6.95;;;1.75;;
46835;SDS011;32573;51.290;6.926;2023-03-31T10:27:15;7.72;;;1.90;;
46835;SDS011;32573;51.290;6.926;2023-03-31T10:29:49;6.75;;;1.75;;
46835;SDS011;32573;51.290;6.926;2023-03-31T10:32:21;7.28;;;2.00;;
46835;SDS011;32573;51.290;6.926;2023-03-31T10:34:56;7.80;;;1.90;;
46835;SDS011;32573;51.290;6.926;2023-03-31T10:37:27;7.50;;;1.90;;
46835;SDS011;32573;51.290;6.926;2023-03-31T10:39:58;9.18;;;1.77;;
46835;SDS011;32573;51.290;6.926;2023-03-31T10:42:30;8.75;;;1.77;;
46835;SDS011;32573;51.290;6.926;2023-03-31T10:45:12;5.85;;;1.40;;
46835;SDS011;32573;51.290;6.926;2023-03-31T10:48:04;7.82;;;1.77;;
46835;SDS011;32573;51.290;6.926;2023-03-31T10:50:45;7.18;;;1.75;;
46835;SDS011;32573;51.290;6.926;2023-03-31T10:53:15;9.88;;;1.90;;
46835;SDS011;32573;51.290;6.926;2023-03-31T10:55:47;8.18;;;2.10;;
46835;SDS011;32573;51.290;6.926;2023-03-31T10:58:26;8.25;;;1.80;;
46835;SDS011;32573;51.290;6.926;2023-03-31T11:01:07;7.68;;;2.20;;
46835;SDS011;32573;51.290;6.926;2023-03-31T11:03:58;6.50;;;1.63;;
46835;SDS011;32573;51.290;6.926;2023-03-31T11:06:42;7.50;;;1.80;;
46835;SDS011;32573;51.290;6.926;2023-03-31T11:09:24;2.28;;;0.82;;
46835;SDS011;32573;51.290;6.926;2023-03-31T11:12:04;3.40;;;1.10;;
46835;SDS011;32573;51.290;6.926;2023-03-31T11:14:41;4.18;;;1.10;;
46835;SDS011;32573;51.290;6.926;2023-03-31T11:17:22;5.47;;;1.17;;
46835;SDS011;32573;51.290;6.926;2023-03-31T11:20:01;5.22;;;1.23;;
46835;SDS011;32573;51.290;6.926;2023-03-31T11:22:43;3.65;;;1.05;;
46835;SDS011;32573;51.290;6.926;2023-03-31T11:25:21;3.15;;;1.23;;
46835;SDS011;32573;51.290;6.926;2023-03-31T11:31:05;3.08;;;1.08;;
46835;SDS011;32573;51.290;6.926;2023-03-31T11:33:47;5.72;;;1.30;;
46835;SDS011;32573;51.290;6.926;2023-03-31T11:36:32;7.00;;;1.33;;
46835;SDS011;32573;51.290;6.926;2023-03-31T11:39:23;5.05;;;1.55;;
46835;SDS011;32573;51.290;6.926;2023-03-31T11:42:02;4.38;;;1.13;;
46835;SDS011;32573;51.290;6.926;2023-03-31T11:44:36;4.68;;;1.10;;
46835;SDS011;32573;51.290;6.926;2023-03-31T11:47:09;5.30;;;1.40;;
46835;SDS011;32573;51.290;6.926;2023-03-31T11:52:16;4.35;;;1.40;;
46835;SDS011;32573;51.290;6.926;2023-03-31T11:54:50;5.88;;;1.35;;
46835;SDS011;32573;51.290;6.926;2023-03-31T11:57:22;4.95;;;1.30;;
46835;SDS011;32573;51.290;6.926;2023-03-31T11:59:57;3.92;;;1.10;;
46835;SDS011;32573;51.290;6.926;2023-03-31T12:02:38;3.13;;;1.05;;
46835;SDS011;32573;51.290;6.926;2023-03-31T12:05:11;5.80;;;1.20;;
46835;SDS011;32573;51.290;6.926;2023-03-31T12:07:43;5.18;;;1.27;;
46835;SDS011;32573;51.290;6.926;2023-03-31T12:10:19;5.07;;;1.30;;
46835;SDS011;32573;51.290;6.926;2023-03-31T12:12:50;5.47;;;1.33;;
46835;SDS011;32573;51.290;6.926;2023-03-31T12:15:26;4.32;;;1.10;;
46835;SDS011;32573;51.290;6.926;2023-03-31T12:18:02;6.70;;;1.88;;
46835;SDS011;32573;51.290;6.926;2023-03-31T12:20:38;6.05;;;1.33;;
46835;SDS011;32573;51.290;6.926;2023-03-31T12:23:10;3.90;;;1.20;;
46835;SDS011;32573;51.290;6.926;2023-03-31T12:25:45;7.15;;;1.48;;
46835;SDS011;32573;51.290;6.926;2023-03-31T12:28:18;4.97;;;1.50;;
46835;SDS011;32573;51.290;6.926;2023-03-31T12:30:47;6.82;;;1.40;;
46835;SDS011;32573;51.290;6.926;2023-03-31T12:33:21;7.07;;;1.60;;
46835;SDS011;32573;51.290;6.926;2023-03-31T12:35:57;6.78;;;1.70;;
46835;SDS011;32573;51.290;6.926;2023-03-31T12:38:49;5.85;;;1.40;;
46835;SDS011;32573;51.290;6.926;2023-03-31T12:41:31;6.55;;;1.58;;
46835;SDS011;32573;51.290;6.926;2023-03-31T12:47:02;5.82;;;1.50;;
46835;SDS011;32573;51.290;6.926;2023-03-31T12:49:50;7.03;;;1.60;;
46835;SDS011;32573;51.290;6.926;2023-03-31T12:52:27;7.32;;;1.65;;
46835;SDS011;32573;51.290;6.926;2023-03-31T12:55:10;6.07;;;1.40;;
46835;SDS011;32573;51.290;6.926;2023-03-31T12:57:52;5.90;;;1.40;;
46835;SDS011;32573;51.290;6.926;2023-03-31T13:00:24;5.80;;;1.60;;
46835;SDS011;32573;51.290;6.926;2023-03-31T13:06:00;6.10;;;1.40;;
46835;SDS011;32573;51.290;6.926;2023-03-31T13:08:48;4.82;;;1.40;;
46835;SDS011;32573;51.290;6.926;2023-03-31T13:11:18;6.00;;;1.80;;
46835;SDS011;32573;51.290;6.926;2023-03-31T13:13:55;7.60;;;1.60;;
46835;SDS011;32573;51.290;6.926;2023-03-31T13:16:27;6.97;;;1.33;;
46835;SDS011;32573;51.290;6.926;2023-03-31T13:18:57;7.72;;;1.48;;
46835;SDS011;32573;51.290;6.926;2023-03-31T13:21:25;4.60;;;1.42;;
46835;SDS011;32573;51.290;6.926;2023-03-31T13:23:58;5.55;;;1.20;;
46835;SDS011;32573;51.290;6.926;2023-03-31T13:26:38;5.88;;;1.50;;
46835;SDS011;32573;51.290;6.926;2023-03-31T13:29:15;6.88;;;1.25;;
46835;SDS011;32573;51.290;6.926;2023-03-31T13:34:57;4.72;;;1.20;;
46835;SDS011;32573;51.290;6.926;2023-03-31T13:37:32;5.22;;;1.30;;
46835;SDS011;32573;51.290;6.926;2023-03-31T13:40:25;6.35;;;1.25;;
46835;SDS011;32573;51.290;6.926;2023-03-31T13:43:18;8.25;;;1.20;;
46835;SDS011;32573;51.290;6.926;2023-03-31T13:46:08;6.45;;;1.35;;
46835;SDS011;32573;51.290;6.926;2023-03-31T13:48:50;6.05;;;1.38;;
46835;SDS011;32573;51.290;6.926;2023-03-31T13:51:30;5.15;;;1.30;;
46835;SDS011;32573;51.290;6.926;2023-03-31T13:54:29;5.50;;;1.20;;
46835;SDS011;32573;51.290;6.926;2023-03-31T13:57:26;5.35;;;1.35;;
46835;SDS011;32573;51.290;6.926;2023-03-31T14:00:20;5.38;;;1.25;;
46835;SDS011;32573;51.290;6.926;2023-03-31T14:03:11;8.25;;;1.45;;
46835;SDS011;32573;51.290;6.926;2023-03-31T14:05:49;5.38;;;1.40;;
46835;SDS011;32573;51.290;6.926;2023-03-31T14:08:28;5.72;;;1.30;;
46835;SDS011;32573;51.290;6.926;2023-03-31T14:11:14;5.97;;;1.17;;
46835;SDS011;32573;51.290;6.926;2023-03-31T14:13:45;5.07;;;1.15;;
46835;SDS011;32573;51.290;6.926;2023-03-31T14:16:26;4.28;;;1.20;;
46835;SDS011;32573;51.290;6.926;2023-03-31T14:19:03;6.57;;;1.23;;
46835;SDS011;32573;51.290;6.926;2023-03-31T14:21:50;5.13;;;1.25;;
46835;SDS011;32573;51.290;6.926;2023-03-31T14:24:26;4.30;;;1.13;;
46835;SDS011;32573;51.290;6.926;2023-03-31T14:26:59;3.45;;;1.10;;
46835;SDS011;32573;51.290;6.926;2023-03-31T14:29:35;5.22;;;1.10;;
46835;SDS011;32573;51.290;6.926;2023-03-31T14:32:12;3.70;;;1.00;;
46835;SDS011;32573;51.290;6.926;2023-03-31T14:35:00;3.92;;;0.93;;
46835;SDS011;32573;51.290;6.926;2023-03-31T14:37:41;4.75;;;1.20;;
46835;SDS011;32573;51.290;6.926;2023-03-31T14:40:09;3.63;;;1.05;;
46835;SDS011;32573;51.290;6.926;2023-03-31T14:42:42;3.17;;;1.00;;
46835;SDS011;32573;51.290;6.926;2023-03-31T14:45:16;4.30;;;1.00;;
46835;SDS011;32573;51.290;6.926;2023-03-31T14:47:53;5.45;;;1.10;;
46835;SDS011;32573;51.290;6.926;2023-03-31T14:50:28;4.07;;;1.02;;
46835;SDS011;32573;51.290;6.926;2023-03-31T14:52:58;2.97;;;0.90;;
46835;SDS011;32573;51.290;6.926;2023-03-31T14:55:28;4.95;;;1.20;;
46835;SDS011;32573;51.290;6.926;2023-03-31T14:58:20;4.95;;;1.10;;
46835;SDS011;32573;51.290;6.926;2023-03-31T15:00:52;4.07;;;1.08;;
46835;SDS011;32573;51.290;6.926;2023-03-31T15:03:21;6.18;;;1.25;;
46835;SDS011;32573;51.290;6.926;2023-03-31T15:05:56;4.43;;;1.20;;
46835;SDS011;32573;51.290;6.926;2023-03-31T15:08:26;5.10;;;1.05;;
46835;SDS011;32573;51.290;6.926;2023-03-31T15:10:56;4.63;;;1.10;;
46835;SDS011;32573;51.290;6.926;2023-03-31T15:13:40;4.53;;;1.40;;
46835;SDS011;32573;51.290;6.926;2023-03-31T15:16:31;7.35;;;1.30;;
46835;SDS011;32573;51.290;6.926;2023-03-31T15:19:04;6.15;;;1.48;;
46835;SDS011;32573;51.290;6.926;2023-03-31T15:21:40;4.53;;;1.20;;
46835;SDS011;32573;51.290;6.926;2023-03-31T15:24:10;6.78;;;1.13;;
46835;SDS011;32573;51.290;6.926;2023-03-31T15:26:39;6.53;;;1.30;;
46835;SDS011;32573;51.290;6.926;2023-03-31T15:29:15;6.97;;;1.35;;
46835;SDS011;32573;51.290;6.926;2023-03-31T15:31:46;4.63;;;1.10;;
46835;SDS011;32573;51.290;6.926;2023-03-31T15:34:20;6.45;;;1.33;;
46835;SDS011;32573;51.290;6.926;2023-03-31T15:36:55;5.63;;;1.30;;
46835;SDS011;32573;51.290;6.926;2023-03-31T15:39:24;6.35;;;1.30;;
46835;SDS011;32573;51.290;6.926;2023-03-31T15:41:55;5.72;;;1.40;;
46835;SDS011;32573;51.290;6.926;2023-03-31T15:47:14;6.55;;;1.45;;
46835;SDS011;32573;51.290;6.926;2023-03-31T15:49:48;3.42;;;1.00;;
46835;SDS011;32573;51.290;6.926;2023-03-31T15:52:25;7.30;;;1.60;;
46835;SDS011;32573;51.290;6.926;2023-03-31T15:54:56;5.32;;;1.25;;
46835;SDS011;32573;51.290;6.926;2023-03-31T15:57:29;3.55;;;1.00;;
46835;SDS011;32573;51.290;6.926;2023-03-31T15:59:59;3.38;;;0.90;;
46835;SDS011;32573;51.290;6.926;2023-03-31T16:02:41;4.28;;;0.90;;
46835;SDS011;32573;51.290;6.926;2023-03-31T16:05:20;4.70;;;1.10;;